sensor_id;sensor_type;location;lat;lon;timestamp;P1;durP1;ratioP1;P2;durP2;ratioP2
24585;SDS011;12743;52.262;6.172;2023-03-09T00:01:45;17.83;;;6.70;;
24585;SDS011;12743;52.262;6.172;2023-03-09T00:04:15;15.10;;;6.22;;
24585;SDS011;12743;52.262;6.172;2023-03-09T00:06:43;14.98;;;6.28;;
24585;SDS011;12743;52.262;6.172;2023-03-09T00:09:10;16.90;;;7.30;;
24585;SDS011;12743;52.262;6.172;2023-03-09T00:11:42;14.30;;;6.00;;
24585;SDS011;12743;52.262;6.172;2023-03-09T00:14:11;17.70;;;7.25;;
24585;SDS011;12743;52.262;6.172;2023-03-09T00:16:38;16.02;;;6.85;;
24585;SDS011;12743;52.262;6.172;2023-03-09T00:19:06;15.68;;;6.28;;
24585;SDS011;12743;52.262;6.172;2023-03-09T00:21:33;17.92;;;6.72;;
24585;SDS011;12743;52.262;6.172;2023-03-09T00:26:36;16.65;;;7.32;;
24585;SDS011;12743;52.262;6.172;2023-03-09T00:29:09;17.95;;;6.95;;
24585;SDS011;12743;52.262;6.172;2023-03-09T00:31:38;17.25;;;7.07;;
24585;SDS011;12743;52.262;6.172;2023-03-09T00:34:05;17.30;;;7.00;;
24585;SDS011;12743;52.262;6.172;2023-03-09T00:36:35;17.93;;;6.97;;
24585;SDS011;12743;52.262;6.172;2023-03-09T00:39:02;17.83;;;7.05;;
24585;SDS011;12743;52.262;6.172;2023-03-09T00:41:31;17.98;;;7.45;;
24585;SDS011;12743;52.262;6.172;2023-03-09T00:43:58;18.92;;;7.40;;
24585;SDS011;12743;52.262;6.172;2023-03-09T00:46:26;22.52;;;8.20;;
24585;SDS011;12743;52.262;6.172;2023-03-09T00:48:55;19.43;;;8.67;;
24585;SDS011;12743;52.262;6.172;2023-03-09T00:51:21;19.77;;;8.45;;
24585;SDS011;12743;52.262;6.172;2023-03-09T00:53:49;19.10;;;7.75;;
24585;SDS011;12743;52.262;6.172;2023-03-09T00:56:17;17.20;;;7.18;;
24585;SDS011;12743;52.262;6.172;2023-03-09T00:58:45;21.55;;;8.63;;
24585;SDS011;12743;52.262;6.172;2023-03-09T01:01:14;22.87;;;9.17;;
24585;SDS011;12743;52.262;6.172;2023-03-09T01:03:42;19.85;;;7.75;;
24585;SDS011;12743;52.262;6.172;2023-03-09T01:06:09;19.60;;;8.25;;
24585;SDS011;12743;52.262;6.172;2023-03-09T01:08:36;20.80;;;8.75;;
24585;SDS011;12743;52.262;6.172;2023-03-09T01:11:10;20.10;;;8.35;;
24585;SDS011;12743;52.262;6.172;2023-03-09T01:13:38;17.93;;;7.83;;
24585;SDS011;12743;52.262;6.172;2023-03-09T01:16:06;17.50;;;7.18;;
24585;SDS011;12743;52.262;6.172;2023-03-09T01:18:33;19.88;;;7.88;;
24585;SDS011;12743;52.262;6.172;2023-03-09T01:21:01;18.23;;;7.30;;
24585;SDS011;12743;52.262;6.172;2023-03-09T01:23:28;19.88;;;8.70;;
24585;SDS011;12743;52.262;6.172;2023-03-09T01:25:59;17.17;;;7.90;;
24585;SDS011;12743;52.262;6.172;2023-03-09T01:28:26;18.13;;;7.45;;
24585;SDS011;12743;52.262;6.172;2023-03-09T01:30:53;19.63;;;8.73;;
24585;SDS011;12743;52.262;6.172;2023-03-09T01:33:20;17.92;;;7.72;;
24585;SDS011;12743;52.262;6.172;2023-03-09T01:35:47;21.85;;;9.23;;
24585;SDS011;12743;52.262;6.172;2023-03-09T01:38:14;18.90;;;7.67;;
24585;SDS011;12743;52.262;6.172;2023-03-09T01:40:43;17.40;;;7.75;;
24585;SDS011;12743;52.262;6.172;2023-03-09T01:43:23;19.08;;;8.65;;
24585;SDS011;12743;52.262;6.172;2023-03-09T01:49:11;20.15;;;7.97;;
24585;SDS011;12743;52.262;6.172;2023-03-09T01:51:41;19.23;;;7.77;;
24585;SDS011;12743;52.262;6.172;2023-03-09T01:54:15;19.67;;;7.75;;
24585;SDS011;12743;52.262;6.172;2023-03-09T01:56:48;18.55;;;7.93;;
24585;SDS011;12743;52.262;6.172;2023-03-09T01:59:20;18.35;;;7.72;;
24585;SDS011;12743;52.262;6.172;2023-03-09T02:01:50;19.98;;;7.97;;
24585;SDS011;12743;52.262;6.172;2023-03-09T02:04:20;20.43;;;9.00;;
24585;SDS011;12743;52.262;6.172;2023-03-09T02:06:52;20.75;;;9.02;;
24585;SDS011;12743;52.262;6.172;2023-03-09T02:12:08;25.30;;;10.27;;
24585;SDS011;12743;52.262;6.172;2023-03-09T02:14:39;20.23;;;9.27;;
24585;SDS011;12743;52.262;6.172;2023-03-09T02:17:09;21.70;;;8.30;;
24585;SDS011;12743;52.262;6.172;2023-03-09T02:20:00;19.58;;;8.55;;
24585;SDS011;12743;52.262;6.172;2023-03-09T02:22:34;22.45;;;9.48;;
24585;SDS011;12743;52.262;6.172;2023-03-09T02:25:05;20.33;;;8.43;;
24585;SDS011;12743;52.262;6.172;2023-03-09T02:27:54;19.60;;;8.48;;
24585;SDS011;12743;52.262;6.172;2023-03-09T02:30:23;22.97;;;9.17;;
24585;SDS011;12743;52.262;6.172;2023-03-09T02:33:08;21.08;;;8.95;;
24585;SDS011;12743;52.262;6.172;2023-03-09T02:35:40;22.50;;;9.43;;
24585;SDS011;12743;52.262;6.172;2023-03-09T02:38:11;20.70;;;9.18;;
24585;SDS011;12743;52.262;6.172;2023-03-09T02:40:41;23.85;;;10.02;;
24585;SDS011;12743;52.262;6.172;2023-03-09T02:43:13;23.17;;;9.83;;
24585;SDS011;12743;52.262;6.172;2023-03-09T02:45:43;22.52;;;9.57;;
24585;SDS011;12743;52.262;6.172;2023-03-09T02:48:11;23.80;;;9.57;;
24585;SDS011;12743;52.262;6.172;2023-03-09T02:50:38;22.90;;;9.80;;
24585;SDS011;12743;52.262;6.172;2023-03-09T02:53:05;23.52;;;8.82;;
24585;SDS011;12743;52.262;6.172;2023-03-09T02:55:34;22.13;;;9.03;;
24585;SDS011;12743;52.262;6.172;2023-03-09T02:58:04;21.92;;;9.18;;
24585;SDS011;12743;52.262;6.172;2023-03-09T03:00:31;24.52;;;10.15;;
24585;SDS011;12743;52.262;6.172;2023-03-09T03:02:58;23.50;;;9.35;;
24585;SDS011;12743;52.262;6.172;2023-03-09T03:05:27;24.02;;;10.27;;
24585;SDS011;12743;52.262;6.172;2023-03-09T03:07:55;22.43;;;9.60;;
24585;SDS011;12743;52.262;6.172;2023-03-09T03:10:24;23.02;;;9.98;;
24585;SDS011;12743;52.262;6.172;2023-03-09T03:12:51;26.25;;;10.55;;
24585;SDS011;12743;52.262;6.172;2023-03-09T03:15:18;24.23;;;10.75;;
24585;SDS011;12743;52.262;6.172;2023-03-09T03:17:45;23.88;;;9.55;;
24585;SDS011;12743;52.262;6.172;2023-03-09T03:20:12;24.60;;;10.97;;
24585;SDS011;12743;52.262;6.172;2023-03-09T03:22:44;23.92;;;10.00;;
24585;SDS011;12743;52.262;6.172;2023-03-09T03:25:12;23.85;;;10.15;;
24585;SDS011;12743;52.262;6.172;2023-03-09T03:27:43;23.42;;;9.80;;
24585;SDS011;12743;52.262;6.172;2023-03-09T03:30:12;22.77;;;9.77;;
24585;SDS011;12743;52.262;6.172;2023-03-09T03:32:42;24.47;;;9.53;;
24585;SDS011;12743;52.262;6.172;2023-03-09T03:35:11;21.25;;;9.20;;
24585;SDS011;12743;52.262;6.172;2023-03-09T03:37:41;23.17;;;9.57;;
24585;SDS011;12743;52.262;6.172;2023-03-09T03:40:08;22.65;;;10.32;;
24585;SDS011;12743;52.262;6.172;2023-03-09T03:42:39;21.52;;;9.15;;
24585;SDS011;12743;52.262;6.172;2023-03-09T03:45:08;22.77;;;9.40;;
24585;SDS011;12743;52.262;6.172;2023-03-09T03:47:36;18.92;;;8.05;;
24585;SDS011;12743;52.262;6.172;2023-03-09T03:50:03;24.90;;;9.65;;
24585;SDS011;12743;52.262;6.172;2023-03-09T03:52:34;21.83;;;9.25;;
24585;SDS011;12743;52.262;6.172;2023-03-09T03:55:01;21.73;;;8.80;;
24585;SDS011;12743;52.262;6.172;2023-03-09T03:57:29;22.13;;;8.77;;
24585;SDS011;12743;52.262;6.172;2023-03-09T03:59:56;24.60;;;9.68;;
24585;SDS011;12743;52.262;6.172;2023-03-09T04:02:23;22.35;;;9.57;;
24585;SDS011;12743;52.262;6.172;2023-03-09T04:04:50;21.45;;;9.40;;
24585;SDS011;12743;52.262;6.172;2023-03-09T04:07:17;21.00;;;8.90;;
24585;SDS011;12743;52.262;6.172;2023-03-09T04:09:44;23.27;;;9.40;;
24585;SDS011;12743;52.262;6.172;2023-03-09T04:12:12;23.40;;;10.10;;
24585;SDS011;12743;52.262;6.172;2023-03-09T04:14:41;20.13;;;8.18;;
24585;SDS011;12743;52.262;6.172;2023-03-09T04:17:08;22.38;;;9.43;;
24585;SDS011;12743;52.262;6.172;2023-03-09T04:19:35;23.85;;;9.32;;
24585;SDS011;12743;52.262;6.172;2023-03-09T04:22:03;21.13;;;9.03;;
24585;SDS011;12743;52.262;6.172;2023-03-09T04:24:36;22.55;;;9.07;;
24585;SDS011;12743;52.262;6.172;2023-03-09T04:27:02;23.38;;;9.15;;
24585;SDS011;12743;52.262;6.172;2023-03-09T04:29:49;22.27;;;9.18;;
24585;SDS011;12743;52.262;6.172;2023-03-09T04:32:20;21.40;;;9.20;;
24585;SDS011;12743;52.262;6.172;2023-03-09T04:34:51;21.07;;;8.53;;
24585;SDS011;12743;52.262;6.172;2023-03-09T04:37:19;22.45;;;9.48;;
24585;SDS011;12743;52.262;6.172;2023-03-09T04:39:49;22.30;;;8.88;;
24585;SDS011;12743;52.262;6.172;2023-03-09T04:42:16;20.73;;;9.50;;
24585;SDS011;12743;52.262;6.172;2023-03-09T04:44:44;20.23;;;8.63;;
24585;SDS011;12743;52.262;6.172;2023-03-09T04:47:11;23.70;;;9.63;;
24585;SDS011;12743;52.262;6.172;2023-03-09T04:49:40;19.42;;;8.50;;
24585;SDS011;12743;52.262;6.172;2023-03-09T04:52:08;21.00;;;9.43;;
24585;SDS011;12743;52.262;6.172;2023-03-09T04:54:36;20.95;;;8.65;;
24585;SDS011;12743;52.262;6.172;2023-03-09T04:57:02;23.70;;;9.63;;
24585;SDS011;12743;52.262;6.172;2023-03-09T04:59:29;21.73;;;9.10;;
24585;SDS011;12743;52.262;6.172;2023-03-09T05:01:56;23.08;;;9.05;;
24585;SDS011;12743;52.262;6.172;2023-03-09T05:04:29;23.15;;;8.70;;
24585;SDS011;12743;52.262;6.172;2023-03-09T05:06:57;22.02;;;9.32;;
24585;SDS011;12743;52.262;6.172;2023-03-09T05:09:25;26.10;;;10.07;;
24585;SDS011;12743;52.262;6.172;2023-03-09T05:11:52;21.50;;;8.63;;
24585;SDS011;12743;52.262;6.172;2023-03-09T05:14:21;22.92;;;9.80;;
24585;SDS011;12743;52.262;6.172;2023-03-09T05:16:49;22.52;;;9.40;;
24585;SDS011;12743;52.262;6.172;2023-03-09T05:19:22;21.58;;;9.35;;
24585;SDS011;12743;52.262;6.172;2023-03-09T05:21:53;23.00;;;9.25;;
24585;SDS011;12743;52.262;6.172;2023-03-09T05:24:20;23.03;;;9.90;;
24585;SDS011;12743;52.262;6.172;2023-03-09T05:26:49;21.50;;;9.45;;
24585;SDS011;12743;52.262;6.172;2023-03-09T05:29:19;22.05;;;8.95;;
24585;SDS011;12743;52.262;6.172;2023-03-09T05:31:46;20.63;;;8.98;;
24585;SDS011;12743;52.262;6.172;2023-03-09T05:34:17;19.77;;;9.00;;
24585;SDS011;12743;52.262;6.172;2023-03-09T05:36:44;22.87;;;10.10;;
24585;SDS011;12743;52.262;6.172;2023-03-09T05:39:17;24.08;;;9.68;;
24585;SDS011;12743;52.262;6.172;2023-03-09T05:41:45;23.15;;;9.30;;
24585;SDS011;12743;52.262;6.172;2023-03-09T05:44:21;20.80;;;8.60;;
24585;SDS011;12743;52.262;6.172;2023-03-09T05:46:50;22.98;;;9.35;;
24585;SDS011;12743;52.262;6.172;2023-03-09T05:49:17;24.40;;;9.87;;
24585;SDS011;12743;52.262;6.172;2023-03-09T05:51:44;20.90;;;9.00;;
24585;SDS011;12743;52.262;6.172;2023-03-09T05:54:10;19.35;;;8.55;;
24585;SDS011;12743;52.262;6.172;2023-03-09T05:56:39;22.83;;;9.82;;
24585;SDS011;12743;52.262;6.172;2023-03-09T05:59:06;21.75;;;9.07;;
24585;SDS011;12743;52.262;6.172;2023-03-09T06:01:34;23.40;;;9.90;;
24585;SDS011;12743;52.262;6.172;2023-03-09T06:04:14;22.33;;;9.77;;
24585;SDS011;12743;52.262;6.172;2023-03-09T06:06:44;22.10;;;9.50;;
24585;SDS011;12743;52.262;6.172;2023-03-09T06:09:11;23.10;;;9.20;;
24585;SDS011;12743;52.262;6.172;2023-03-09T06:11:51;23.40;;;10.02;;
24585;SDS011;12743;52.262;6.172;2023-03-09T06:14:19;22.83;;;9.70;;
24585;SDS011;12743;52.262;6.172;2023-03-09T06:16:47;22.25;;;9.85;;
24585;SDS011;12743;52.262;6.172;2023-03-09T06:19:15;19.30;;;9.25;;
24585;SDS011;12743;52.262;6.172;2023-03-09T06:21:43;21.25;;;9.02;;
24585;SDS011;12743;52.262;6.172;2023-03-09T06:24:11;24.55;;;10.27;;
24585;SDS011;12743;52.262;6.172;2023-03-09T06:29:33;23.73;;;10.23;;
24585;SDS011;12743;52.262;6.172;2023-03-09T06:32:01;23.08;;;9.20;;
24585;SDS011;12743;52.262;6.172;2023-03-09T06:34:30;24.13;;;10.05;;
24585;SDS011;12743;52.262;6.172;2023-03-09T06:37:01;26.38;;;10.32;;
24585;SDS011;12743;52.262;6.172;2023-03-09T06:39:28;23.70;;;9.43;;
24585;SDS011;12743;52.262;6.172;2023-03-09T06:41:56;24.02;;;9.68;;
24585;SDS011;12743;52.262;6.172;2023-03-09T06:44:29;24.58;;;10.27;;
24585;SDS011;12743;52.262;6.172;2023-03-09T06:46:57;22.48;;;9.02;;
24585;SDS011;12743;52.262;6.172;2023-03-09T06:49:26;25.08;;;10.50;;
24585;SDS011;12743;52.262;6.172;2023-03-09T06:51:55;24.73;;;9.27;;
24585;SDS011;12743;52.262;6.172;2023-03-09T06:54:23;22.45;;;9.82;;
24585;SDS011;12743;52.262;6.172;2023-03-09T06:56:59;24.27;;;9.63;;
24585;SDS011;12743;52.262;6.172;2023-03-09T06:59:29;21.58;;;8.80;;
24585;SDS011;12743;52.262;6.172;2023-03-09T07:01:58;24.45;;;10.20;;
24585;SDS011;12743;52.262;6.172;2023-03-09T07:04:24;21.63;;;9.47;;
24585;SDS011;12743;52.262;6.172;2023-03-09T07:06:51;25.23;;;9.45;;
24585;SDS011;12743;52.262;6.172;2023-03-09T07:09:17;23.60;;;9.75;;
24585;SDS011;12743;52.262;6.172;2023-03-09T07:11:44;23.60;;;10.57;;
24585;SDS011;12743;52.262;6.172;2023-03-09T07:14:10;24.27;;;10.82;;
24585;SDS011;12743;52.262;6.172;2023-03-09T07:16:37;24.50;;;10.20;;
24585;SDS011;12743;52.262;6.172;2023-03-09T07:19:04;24.30;;;10.43;;
24585;SDS011;12743;52.262;6.172;2023-03-09T07:21:30;28.70;;;10.88;;
24585;SDS011;12743;52.262;6.172;2023-03-09T07:23:58;24.90;;;10.45;;
24585;SDS011;12743;52.262;6.172;2023-03-09T07:26:25;22.52;;;9.90;;
24585;SDS011;12743;52.262;6.172;2023-03-09T07:28:51;26.73;;;10.23;;
24585;SDS011;12743;52.262;6.172;2023-03-09T07:31:18;24.58;;;10.32;;
24585;SDS011;12743;52.262;6.172;2023-03-09T07:33:47;24.58;;;10.32;;
24585;SDS011;12743;52.262;6.172;2023-03-09T07:36:14;25.63;;;10.25;;
24585;SDS011;12743;52.262;6.172;2023-03-09T07:38:41;24.85;;;9.88;;
24585;SDS011;12743;52.262;6.172;2023-03-09T07:41:07;27.57;;;11.40;;
24585;SDS011;12743;52.262;6.172;2023-03-09T07:43:34;24.80;;;11.02;;
24585;SDS011;12743;52.262;6.172;2023-03-09T07:46:07;26.23;;;11.20;;
24585;SDS011;12743;52.262;6.172;2023-03-09T07:48:33;24.48;;;9.27;;
24585;SDS011;12743;52.262;6.172;2023-03-09T07:51:00;25.48;;;11.38;;
24585;SDS011;12743;52.262;6.172;2023-03-09T07:53:29;24.37;;;10.37;;
24585;SDS011;12743;52.262;6.172;2023-03-09T07:55:56;24.25;;;10.05;;
24585;SDS011;12743;52.262;6.172;2023-03-09T07:58:24;23.67;;;10.25;;
24585;SDS011;12743;52.262;6.172;2023-03-09T08:00:51;25.65;;;10.93;;
24585;SDS011;12743;52.262;6.172;2023-03-09T08:03:17;25.02;;;10.55;;
24585;SDS011;12743;52.262;6.172;2023-03-09T08:05:44;27.90;;;11.70;;
24585;SDS011;12743;52.262;6.172;2023-03-09T08:08:11;22.70;;;9.90;;
24585;SDS011;12743;52.262;6.172;2023-03-09T08:10:38;25.48;;;10.95;;
24585;SDS011;12743;52.262;6.172;2023-03-09T08:13:06;24.73;;;10.63;;
24585;SDS011;12743;52.262;6.172;2023-03-09T08:15:35;25.40;;;10.05;;
24585;SDS011;12743;52.262;6.172;2023-03-09T08:18:02;24.47;;;10.03;;
24585;SDS011;12743;52.262;6.172;2023-03-09T08:20:29;24.85;;;10.43;;
24585;SDS011;12743;52.262;6.172;2023-03-09T08:22:55;22.83;;;10.25;;
24585;SDS011;12743;52.262;6.172;2023-03-09T08:25:22;26.55;;;10.88;;
24585;SDS011;12743;52.262;6.172;2023-03-09T08:27:48;23.02;;;10.32;;
24585;SDS011;12743;52.262;6.172;2023-03-09T08:30:16;21.67;;;9.23;;
24585;SDS011;12743;52.262;6.172;2023-03-09T08:32:45;24.80;;;10.38;;
24585;SDS011;12743;52.262;6.172;2023-03-09T08:35:14;22.38;;;9.93;;
24585;SDS011;12743;52.262;6.172;2023-03-09T08:37:42;23.95;;;10.02;;
24585;SDS011;12743;52.262;6.172;2023-03-09T08:40:08;25.17;;;10.93;;
24585;SDS011;12743;52.262;6.172;2023-03-09T08:42:36;24.67;;;9.90;;
24585;SDS011;12743;52.262;6.172;2023-03-09T08:45:03;24.10;;;10.20;;
24585;SDS011;12743;52.262;6.172;2023-03-09T08:47:30;28.67;;;12.48;;
24585;SDS011;12743;52.262;6.172;2023-03-09T08:49:57;25.25;;;10.15;;
24585;SDS011;12743;52.262;6.172;2023-03-09T08:52:24;24.77;;;10.70;;
24585;SDS011;12743;52.262;6.172;2023-03-09T08:54:51;25.23;;;10.30;;
24585;SDS011;12743;52.262;6.172;2023-03-09T08:57:18;24.42;;;10.13;;
24585;SDS011;12743;52.262;6.172;2023-03-09T08:59:47;26.38;;;9.77;;
24585;SDS011;12743;52.262;6.172;2023-03-09T09:02:14;23.13;;;9.50;;
24585;SDS011;12743;52.262;6.172;2023-03-09T09:04:41;23.85;;;9.98;;
24585;SDS011;12743;52.262;6.172;2023-03-09T09:07:08;26.67;;;10.90;;
24585;SDS011;12743;52.262;6.172;2023-03-09T09:09:35;25.88;;;11.18;;
24585;SDS011;12743;52.262;6.172;2023-03-09T09:12:01;22.30;;;9.90;;
24585;SDS011;12743;52.262;6.172;2023-03-09T09:14:28;24.92;;;10.88;;
24585;SDS011;12743;52.262;6.172;2023-03-09T09:16:54;23.02;;;9.60;;
24585;SDS011;12743;52.262;6.172;2023-03-09T09:19:22;23.60;;;9.70;;
24585;SDS011;12743;52.262;6.172;2023-03-09T09:21:49;23.83;;;10.00;;
24585;SDS011;12743;52.262;6.172;2023-03-09T09:24:18;23.17;;;9.55;;
24585;SDS011;12743;52.262;6.172;2023-03-09T09:26:45;22.73;;;9.52;;
24585;SDS011;12743;52.262;6.172;2023-03-09T09:29:12;20.90;;;8.73;;
24585;SDS011;12743;52.262;6.172;2023-03-09T09:31:39;25.77;;;11.23;;
24585;SDS011;12743;52.262;6.172;2023-03-09T09:34:07;23.48;;;10.15;;
24585;SDS011;12743;52.262;6.172;2023-03-09T09:36:33;23.55;;;9.70;;
24585;SDS011;12743;52.262;6.172;2023-03-09T09:39:01;23.40;;;10.18;;
24585;SDS011;12743;52.262;6.172;2023-03-09T09:44:15;23.20;;;9.90;;
24585;SDS011;12743;52.262;6.172;2023-03-09T09:46:46;23.10;;;9.63;;
24585;SDS011;12743;52.262;6.172;2023-03-09T09:49:17;21.33;;;9.77;;
24585;SDS011;12743;52.262;6.172;2023-03-09T09:54:54;21.45;;;9.88;;
24585;SDS011;12743;52.262;6.172;2023-03-09T09:57:45;23.93;;;9.67;;
24585;SDS011;12743;52.262;6.172;2023-03-09T10:00:18;27.23;;;11.43;;
24585;SDS011;12743;52.262;6.172;2023-03-09T10:02:51;23.73;;;9.45;;
24585;SDS011;12743;52.262;6.172;2023-03-09T10:05:30;25.40;;;10.02;;
24585;SDS011;12743;52.262;6.172;2023-03-09T10:08:09;20.55;;;9.00;;
24585;SDS011;12743;52.262;6.172;2023-03-09T10:10:45;24.90;;;10.43;;
24585;SDS011;12743;52.262;6.172;2023-03-09T10:13:14;24.02;;;9.82;;
24585;SDS011;12743;52.262;6.172;2023-03-09T10:15:52;23.77;;;9.95;;
24585;SDS011;12743;52.262;6.172;2023-03-09T10:18:34;28.33;;;11.50;;
24585;SDS011;12743;52.262;6.172;2023-03-09T10:21:09;21.85;;;9.77;;
24585;SDS011;12743;52.262;6.172;2023-03-09T10:23:41;23.70;;;9.80;;
24585;SDS011;12743;52.262;6.172;2023-03-09T10:28:41;22.70;;;9.93;;
24585;SDS011;12743;52.262;6.172;2023-03-09T10:31:15;24.10;;;9.55;;
24585;SDS011;12743;52.262;6.172;2023-03-09T10:33:45;20.38;;;9.05;;
24585;SDS011;12743;52.262;6.172;2023-03-09T10:36:32;21.10;;;9.37;;
24585;SDS011;12743;52.262;6.172;2023-03-09T10:39:02;20.25;;;9.15;;
24585;SDS011;12743;52.262;6.172;2023-03-09T10:41:38;21.25;;;8.45;;
24585;SDS011;12743;52.262;6.172;2023-03-09T10:44:05;21.10;;;9.07;;
24585;SDS011;12743;52.262;6.172;2023-03-09T10:46:52;22.88;;;9.43;;
24585;SDS011;12743;52.262;6.172;2023-03-09T10:49:22;23.10;;;9.50;;
24585;SDS011;12743;52.262;6.172;2023-03-09T10:51:56;22.85;;;9.77;;
24585;SDS011;12743;52.262;6.172;2023-03-09T10:54:32;24.17;;;9.85;;
24585;SDS011;12743;52.262;6.172;2023-03-09T10:57:01;23.08;;;9.10;;
24585;SDS011;12743;52.262;6.172;2023-03-09T10:59:29;25.73;;;10.32;;
24585;SDS011;12743;52.262;6.172;2023-03-09T11:01:57;21.90;;;9.30;;
24585;SDS011;12743;52.262;6.172;2023-03-09T11:04:27;21.75;;;9.45;;
24585;SDS011;12743;52.262;6.172;2023-03-09T11:06:59;23.17;;;9.75;;
24585;SDS011;12743;52.262;6.172;2023-03-09T11:12:08;21.27;;;8.70;;
24585;SDS011;12743;52.262;6.172;2023-03-09T11:14:42;22.23;;;9.10;;
24585;SDS011;12743;52.262;6.172;2023-03-09T11:22:47;22.00;;;8.80;;
24585;SDS011;12743;52.262;6.172;2023-03-09T11:31:00;21.08;;;8.85;;
24585;SDS011;12743;52.262;6.172;2023-03-09T11:33:27;22.42;;;9.20;;
24585;SDS011;12743;52.262;6.172;2023-03-09T11:35:56;23.88;;;9.93;;
24585;SDS011;12743;52.262;6.172;2023-03-09T11:38:22;19.38;;;8.45;;
24585;SDS011;12743;52.262;6.172;2023-03-09T11:40:57;20.73;;;8.50;;
24585;SDS011;12743;52.262;6.172;2023-03-09T11:43:31;21.50;;;9.15;;
24585;SDS011;12743;52.262;6.172;2023-03-09T11:46:02;24.52;;;9.00;;
24585;SDS011;12743;52.262;6.172;2023-03-09T11:48:37;21.58;;;9.02;;
24585;SDS011;12743;52.262;6.172;2023-03-09T11:54:00;21.53;;;8.97;;
24585;SDS011;12743;52.262;6.172;2023-03-09T11:56:33;21.13;;;8.60;;
24585;SDS011;12743;52.262;6.172;2023-03-09T12:04:45;23.58;;;10.02;;
24585;SDS011;12743;52.262;6.172;2023-03-09T12:07:15;19.73;;;8.10;;
24585;SDS011;12743;52.262;6.172;2023-03-09T12:18:14;19.10;;;8.00;;
24585;SDS011;12743;52.262;6.172;2023-03-09T12:20:49;22.37;;;9.93;;
24585;SDS011;12743;52.262;6.172;2023-03-09T12:28:38;21.05;;;8.43;;
24585;SDS011;12743;52.262;6.172;2023-03-09T12:31:23;21.42;;;9.00;;
24585;SDS011;12743;52.262;6.172;2023-03-09T12:34:02;21.90;;;8.50;;
24585;SDS011;12743;52.262;6.172;2023-03-09T12:36:32;21.63;;;9.00;;
24585;SDS011;12743;52.262;6.172;2023-03-09T12:41:56;23.25;;;9.82;;
24585;SDS011;12743;52.262;6.172;2023-03-09T12:47:23;22.77;;;8.77;;
24585;SDS011;12743;52.262;6.172;2023-03-09T12:49:55;20.08;;;9.13;;
24585;SDS011;12743;52.262;6.172;2023-03-09T12:52:32;20.88;;;8.50;;
24585;SDS011;12743;52.262;6.172;2023-03-09T12:57:52;22.52;;;9.75;;
24585;SDS011;12743;52.262;6.172;2023-03-09T13:00:53;24.13;;;10.07;;
24585;SDS011;12743;52.262;6.172;2023-03-09T13:03:25;19.73;;;8.13;;
24585;SDS011;12743;52.262;6.172;2023-03-09T13:05:58;21.88;;;9.32;;
24585;SDS011;12743;52.262;6.172;2023-03-09T13:08:36;19.90;;;8.43;;
24585;SDS011;12743;52.262;6.172;2023-03-09T13:27:03;18.77;;;8.47;;
24585;SDS011;12743;52.262;6.172;2023-03-09T13:29:38;20.17;;;8.45;;
24585;SDS011;12743;52.262;6.172;2023-03-09T13:35:20;21.10;;;8.43;;
24585;SDS011;12743;52.262;6.172;2023-03-09T13:37:50;18.52;;;8.38;;
24585;SDS011;12743;52.262;6.172;2023-03-09T13:40:25;21.90;;;8.20;;
24585;SDS011;12743;52.262;6.172;2023-03-09T13:42:57;20.00;;;8.35;;
24585;SDS011;12743;52.262;6.172;2023-03-09T13:45:27;22.63;;;8.60;;
24585;SDS011;12743;52.262;6.172;2023-03-09T13:48:00;19.25;;;7.70;;
24585;SDS011;12743;52.262;6.172;2023-03-09T13:50:31;19.20;;;8.48;;
24585;SDS011;12743;52.262;6.172;2023-03-09T13:53:01;21.33;;;9.00;;
24585;SDS011;12743;52.262;6.172;2023-03-09T13:55:30;21.60;;;8.55;;
24585;SDS011;12743;52.262;6.172;2023-03-09T13:58:13;17.05;;;7.32;;
24585;SDS011;12743;52.262;6.172;2023-03-09T14:00:58;20.50;;;8.45;;
24585;SDS011;12743;52.262;6.172;2023-03-09T14:03:27;21.40;;;9.20;;
24585;SDS011;12743;52.262;6.172;2023-03-09T14:06:06;20.70;;;9.30;;
24585;SDS011;12743;52.262;6.172;2023-03-09T14:08:55;22.55;;;8.82;;
24585;SDS011;12743;52.262;6.172;2023-03-09T14:11:30;20.63;;;8.95;;
24585;SDS011;12743;52.262;6.172;2023-03-09T14:14:04;20.52;;;8.95;;
24585;SDS011;12743;52.262;6.172;2023-03-09T14:16:32;19.33;;;7.95;;
24585;SDS011;12743;52.262;6.172;2023-03-09T14:19:00;20.87;;;9.67;;
24585;SDS011;12743;52.262;6.172;2023-03-09T14:21:29;20.67;;;8.80;;
24585;SDS011;12743;52.262;6.172;2023-03-09T14:26:43;20.27;;;8.80;;
24585;SDS011;12743;52.262;6.172;2023-03-09T14:31:40;19.83;;;8.60;;
24585;SDS011;12743;52.262;6.172;2023-03-09T14:36:49;20.30;;;8.70;;
24585;SDS011;12743;52.262;6.172;2023-03-09T14:39:35;17.85;;;7.97;;
24585;SDS011;12743;52.262;6.172;2023-03-09T14:44:44;21.40;;;9.17;;
24585;SDS011;12743;52.262;6.172;2023-03-09T14:47:30;21.95;;;9.18;;
24585;SDS011;12743;52.262;6.172;2023-03-09T14:49:57;22.33;;;9.02;;
24585;SDS011;12743;52.262;6.172;2023-03-09T14:52:24;21.08;;;8.48;;
24585;SDS011;12743;52.262;6.172;2023-03-09T14:54:57;20.65;;;8.50;;
24585;SDS011;12743;52.262;6.172;2023-03-09T14:57:26;23.67;;;10.90;;
24585;SDS011;12743;52.262;6.172;2023-03-09T14:59:53;23.05;;;9.15;;
24585;SDS011;12743;52.262;6.172;2023-03-09T15:02:20;23.13;;;8.63;;
24585;SDS011;12743;52.262;6.172;2023-03-09T15:04:46;19.38;;;8.65;;
24585;SDS011;12743;52.262;6.172;2023-03-09T15:07:14;21.92;;;8.90;;
24585;SDS011;12743;52.262;6.172;2023-03-09T15:09:42;22.03;;;9.00;;
24585;SDS011;12743;52.262;6.172;2023-03-09T15:12:14;20.58;;;8.75;;
24585;SDS011;12743;52.262;6.172;2023-03-09T15:14:44;20.25;;;8.95;;
24585;SDS011;12743;52.262;6.172;2023-03-09T15:17:14;23.25;;;9.23;;
24585;SDS011;12743;52.262;6.172;2023-03-09T15:19:43;20.60;;;8.82;;
24585;SDS011;12743;52.262;6.172;2023-03-09T15:22:10;20.63;;;8.83;;
24585;SDS011;12743;52.262;6.172;2023-03-09T15:24:38;20.13;;;8.52;;
24585;SDS011;12743;52.262;6.172;2023-03-09T15:27:05;19.52;;;8.45;;
24585;SDS011;12743;52.262;6.172;2023-03-09T15:29:32;18.17;;;7.68;;
24585;SDS011;12743;52.262;6.172;2023-03-09T15:31:59;20.77;;;8.10;;
24585;SDS011;12743;52.262;6.172;2023-03-09T15:34:30;16.57;;;7.43;;
24585;SDS011;12743;52.262;6.172;2023-03-09T15:36:57;18.58;;;8.27;;
24585;SDS011;12743;52.262;6.172;2023-03-09T15:39:23;18.55;;;7.97;;
24585;SDS011;12743;52.262;6.172;2023-03-09T15:41:50;18.92;;;9.02;;
24585;SDS011;12743;52.262;6.172;2023-03-09T15:44:16;18.67;;;8.43;;
24585;SDS011;12743;52.262;6.172;2023-03-09T15:46:43;16.50;;;7.50;;
24585;SDS011;12743;52.262;6.172;2023-03-09T15:49:10;19.73;;;8.63;;
24585;SDS011;12743;52.262;6.172;2023-03-09T15:51:36;21.52;;;9.40;;
24585;SDS011;12743;52.262;6.172;2023-03-09T15:54:03;20.63;;;8.45;;
24585;SDS011;12743;52.262;6.172;2023-03-09T15:56:31;20.42;;;8.77;;
24585;SDS011;12743;52.262;6.172;2023-03-09T15:58:59;18.90;;;7.73;;
24585;SDS011;12743;52.262;6.172;2023-03-09T16:01:25;18.83;;;7.70;;
24585;SDS011;12743;52.262;6.172;2023-03-09T16:03:53;19.63;;;7.93;;
24585;SDS011;12743;52.262;6.172;2023-03-09T16:06:20;17.80;;;7.75;;
24585;SDS011;12743;52.262;6.172;2023-03-09T16:08:48;19.90;;;8.15;;
24585;SDS011;12743;52.262;6.172;2023-03-09T16:11:16;18.10;;;7.63;;
24585;SDS011;12743;52.262;6.172;2023-03-09T16:13:43;19.75;;;7.60;;
24585;SDS011;12743;52.262;6.172;2023-03-09T16:16:10;17.98;;;7.60;;
24585;SDS011;12743;52.262;6.172;2023-03-09T16:18:36;17.92;;;7.13;;
24585;SDS011;12743;52.262;6.172;2023-03-09T16:21:03;18.45;;;7.80;;